sensor_id;sensor_type;location;lat;lon;timestamp;pressure;altitude;pressure_sealevel;temperature;humidity
72285;BME280;60220;53.552;10.092;2023-04-01T00:02:03;99315.50;;;11.36;87.08
72285;BME280;60220;53.552;10.092;2023-04-01T00:04:30;99321.56;;;11.38;87.78
72285;BME280;60220;53.552;10.092;2023-04-01T00:06:57;99317.47;;;11.31;87.54
72285;BME280;60220;53.552;10.092;2023-04-01T00:09:25;99322.19;;;11.00;88.51
72285;BME280;60220;53.552;10.092;2023-04-01T00:11:51;99317.59;;;11.28;88.07
72285;BME280;60220;53.552;10.092;2023-04-01T00:14:18;99321.69;;;11.12;88.36
72285;BME280;60220;53.552;10.092;2023-04-01T00:16:48;99324.00;;;10.74;89.62
72285;BME280;60220;53.552;10.092;2023-04-01T00:19:15;99321.69;;;11.12;89.96
72285;BME280;60220;53.552;10.092;2023-04-01T00:21:41;99321.09;;;11.05;89.45
72285;BME280;60220;53.552;10.092;2023-04-01T00:24:08;99328.22;;;11.02;89.09
72285;BME280;60220;53.552;10.092;2023-04-01T00:26:35;99323.13;;;10.97;89.38
72285;BME280;60220;53.552;10.092;2023-04-01T00:29:04;99323.41;;;11.13;89.46
72285;BME280;60220;53.552;10.092;2023-04-01T00:31:33;99328.22;;;11.02;89.25
72285;BME280;60220;53.552;10.092;2023-04-01T00:34:01;99333.25;;;11.08;89.22
72285;BME280;60220;53.552;10.092;2023-04-01T00:36:28;99328.16;;;11.27;88.68
72285;BME280;60220;53.552;10.092;2023-04-01T00:38:54;99324.34;;;10.89;89.36
72285;BME280;60220;53.552;10.092;2023-04-01T00:41:21;99324.13;;;10.95;89.63
72285;BME280;60220;53.552;10.092;2023-04-01T00:43:49;99329.66;;;11.10;89.05
72285;BME280;60220;53.552;10.092;2023-04-01T00:46:17;99319.75;;;11.17;88.92
72285;BME280;60220;53.552;10.092;2023-04-01T00:48:45;99320.59;;;10.96;89.24
72285;BME280;60220;53.552;10.092;2023-04-01T00:51:17;99325.00;;;11.17;88.93
72285;BME280;60220;53.552;10.092;2023-04-01T00:53:49;99318.88;;;10.95;89.23
72285;BME280;60220;53.552;10.092;2023-04-01T00:56:21;99318.56;;;11.02;88.99
72285;BME280;60220;53.552;10.092;2023-04-01T00:58:51;99323.84;;;11.47;88.87
72285;BME280;60220;53.552;10.092;2023-04-01T01:01:24;99327.53;;;11.20;88.10
72285;BME280;60220;53.552;10.092;2023-04-01T01:03:51;99322.38;;;11.40;88.09
72285;BME280;60220;53.552;10.092;2023-04-01T01:06:26;99327.31;;;11.03;88.02
72285;BME280;60220;53.552;10.092;2023-04-01T01:09:06;99323.81;;;11.26;87.88
72285;BME280;60220;53.552;10.092;2023-04-01T01:11:37;99326.66;;;11.43;87.49
72285;BME280;60220;53.552;10.092;2023-04-01T01:14:12;99329.44;;;11.38;86.67
72285;BME280;60220;53.552;10.092;2023-04-01T01:16:48;99328.16;;;11.27;87.59
72285;BME280;60220;53.552;10.092;2023-04-01T01:19:39;99328.91;;;11.30;87.09
72285;BME280;60220;53.552;10.092;2023-04-01T01:22:39;99329.22;;;11.44;87.37
72285;BME280;60220;53.552;10.092;2023-04-01T01:25:25;99331.72;;;11.47;87.71
72285;BME280;60220;53.552;10.092;2023-04-01T01:28:01;99321.59;;;11.15;87.89
72285;BME280;60220;53.552;10.092;2023-04-01T01:30:39;99332.22;;;10.89;88.77
72285;BME280;60220;53.552;10.092;2023-04-01T01:33:25;99325.41;;;11.30;88.23
72285;BME280;60220;53.552;10.092;2023-04-01T01:36:04;99329.13;;;11.24;88.18
72285;BME280;60220;53.552;10.092;2023-04-01T01:38:34;99326.50;;;11.46;87.73
72285;BME280;60220;53.552;10.092;2023-04-01T01:41:04;99335.75;;;11.11;87.95
72285;BME280;60220;53.552;10.092;2023-04-01T01:43:33;99325.31;;;11.09;88.19
72285;BME280;60220;53.552;10.092;2023-04-01T01:46:07;99335.19;;;11.03;88.18
72285;BME280;60220;53.552;10.092;2023-04-01T01:48:36;99326.50;;;11.24;87.79
72285;BME280;60220;53.552;10.092;2023-04-01T01:51:06;99336.59;;;11.56;87.63
72285;BME280;60220;53.552;10.092;2023-04-01T01:53:33;99342.41;;;10.96;88.53
72285;BME280;60220;53.552;10.092;2023-04-01T01:56:00;99337.81;;;11.03;88.41
72285;BME280;60220;53.552;10.092;2023-04-01T01:58:29;99343.63;;;11.11;88.64
72285;BME280;60220;53.552;10.092;2023-04-01T02:01:01;99338.16;;;11.17;87.97
72285;BME280;60220;53.552;10.092;2023-04-01T02:03:31;99338.09;;;11.63;86.86
72285;BME280;60220;53.552;10.092;2023-04-01T02:06:00;99336.53;;;11.36;85.81
72285;BME280;60220;53.552;10.092;2023-04-01T02:08:32;99333.31;;;11.51;85.45
72285;BME280;60220;53.552;10.092;2023-04-01T02:11:05;99334.59;;;11.63;85.88
72285;BME280;60220;53.552;10.092;2023-04-01T02:13:35;99328.72;;;11.56;85.30
72285;BME280;60220;53.552;10.092;2023-04-01T02:16:10;99338.16;;;11.40;85.84
72285;BME280;60220;53.552;10.092;2023-04-01T02:18:38;99334.84;;;11.35;86.44
72285;BME280;60220;53.552;10.092;2023-04-01T02:21:07;99343.81;;;11.75;86.61
72285;BME280;60220;53.552;10.092;2023-04-01T02:23:38;99338.03;;;11.87;84.82
72285;BME280;60220;53.552;10.092;2023-04-01T02:26:07;99339.38;;;11.53;85.55
72285;BME280;60220;53.552;10.092;2023-04-01T02:28:37;99341.34;;;11.70;86.18
72285;BME280;60220;53.552;10.092;2023-04-01T02:31:06;99333.88;;;11.81;85.11
72285;BME280;60220;53.552;10.092;2023-04-01T02:33:34;99343.63;;;11.34;85.78
72285;BME280;60220;53.552;10.092;2023-04-01T02:36:04;99349.50;;;11.17;86.63
72285;BME280;60220;53.552;10.092;2023-04-01T02:38:30;99342.31;;;11.68;86.21
72285;BME280;60220;53.552;10.092;2023-04-01T02:41:00;99343.50;;;11.37;86.41
72285;BME280;60220;53.552;10.092;2023-04-01T02:43:27;99351.47;;;11.57;85.87
72285;BME280;60220;53.552;10.092;2023-04-01T02:45:54;99345.97;;;11.63;85.23
72285;BME280;60220;53.552;10.092;2023-04-01T02:48:23;99352.25;;;11.38;86.16
72285;BME280;60220;53.552;10.092;2023-04-01T02:50:52;99357.66;;;11.33;86.75
72285;BME280;60220;53.552;10.092;2023-04-01T02:53:18;99354.72;;;11.19;86.41
72285;BME280;60220;53.552;10.092;2023-04-01T02:55:48;99355.94;;;11.32;86.08
72285;BME280;60220;53.552;10.092;2023-04-01T02:58:17;99363.94;;;11.52;86.64
72285;BME280;60220;53.552;10.092;2023-04-01T03:00:44;99364.75;;;11.31;86.64
72285;BME280;60220;53.552;10.092;2023-04-01T03:03:11;99356.59;;;11.39;86.61
72285;BME280;60220;53.552;10.092;2023-04-01T03:05:41;99362.88;;;11.11;87.54
72285;BME280;60220;53.552;10.092;2023-04-01T03:08:07;99361.94;;;11.59;86.75
72285;BME280;60220;53.552;10.092;2023-04-01T03:10:34;99365.16;;;11.44;86.20
72285;BME280;60220;53.552;10.092;2023-04-01T03:13:01;99376.53;;;11.66;86.34
72285;BME280;60220;53.552;10.092;2023-04-01T03:15:29;99378.97;;;11.49;86.20
72285;BME280;60220;53.552;10.092;2023-04-01T03:17:56;99375.75;;;11.64;85.98
72285;BME280;60220;53.552;10.092;2023-04-01T03:20:22;99369.84;;;11.57;85.25
72285;BME280;60220;53.552;10.092;2023-04-01T03:22:52;99372.34;;;11.84;85.41
72285;BME280;60220;53.552;10.092;2023-04-01T03:25:18;99371.44;;;11.61;85.49
72285;BME280;60220;53.552;10.092;2023-04-01T03:27:45;99380.91;;;11.89;84.88
72285;BME280;60220;53.552;10.092;2023-04-01T03:30:12;99365.28;;;12.06;84.81
72285;BME280;60220;53.552;10.092;2023-04-01T03:32:42;99371.13;;;11.47;85.33
72285;BME280;60220;53.552;10.092;2023-04-01T03:35:09;99369.22;;;11.96;85.31
72285;BME280;60220;53.552;10.092;2023-04-01T03:37:36;99373.84;;;12.11;84.11
72285;BME280;60220;53.552;10.092;2023-04-01T03:40:04;99369.94;;;12.21;82.99
72285;BME280;60220;53.552;10.092;2023-04-01T03:42:31;99372.50;;;11.57;84.08
72285;BME280;60220;53.552;10.092;2023-04-01T03:44:57;99383.81;;;11.59;84.99
72285;BME280;60220;53.552;10.092;2023-04-01T03:47:24;99384.91;;;11.99;84.18
72285;BME280;60220;53.552;10.092;2023-04-01T03:49:52;99386.66;;;11.53;85.70
72285;BME280;60220;53.552;10.092;2023-04-01T03:52:22;99384.03;;;12.20;84.35
72285;BME280;60220;53.552;10.092;2023-04-01T03:54:48;99387.09;;;11.88;83.59
72285;BME280;60220;53.552;10.092;2023-04-01T03:57:15;99389.28;;;11.77;84.30
72285;BME280;60220;53.552;10.092;2023-04-01T03:59:42;99398.59;;;11.85;83.91
72285;BME280;60220;53.552;10.092;2023-04-01T04:02:08;99392.88;;;11.96;83.64
72285;BME280;60220;53.552;10.092;2023-04-01T04:04:35;99392.47;;;11.61;85.13
72285;BME280;60220;53.552;10.092;2023-04-01T04:07:03;99396.31;;;11.06;86.10
72285;BME280;60220;53.552;10.092;2023-04-01T04:09:30;99398.53;;;11.63;85.85
72285;BME280;60220;53.552;10.092;2023-04-01T04:11:57;99399.41;;;11.64;85.04
72285;BME280;60220;53.552;10.092;2023-04-01T04:14:26;99400.06;;;11.24;86.20
72285;BME280;60220;53.552;10.092;2023-04-01T04:16:53;99404.50;;;11.45;86.50
72285;BME280;60220;53.552;10.092;2023-04-01T04:19:19;99408.72;;;11.73;85.64
72285;BME280;60220;53.552;10.092;2023-04-01T04:21:46;99407.50;;;12.03;84.76
72285;BME280;60220;53.552;10.092;2023-04-01T04:24:14;99401.78;;;12.15;83.27
72285;BME280;60220;53.552;10.092;2023-04-01T04:26:40;99405.34;;;11.91;83.10
72285;BME280;60220;53.552;10.092;2023-04-01T04:29:07;99415.41;;;12.03;82.97
72285;BME280;60220;53.552;10.092;2023-04-01T04:31:34;99412.16;;;11.75;84.46
72285;BME280;60220;53.552;10.092;2023-04-01T04:34:01;99418.03;;;12.03;83.91
72285;BME280;60220;53.552;10.092;2023-04-01T04:36:27;99415.22;;;12.07;83.21
72285;BME280;60220;53.552;10.092;2023-04-01T04:38:54;99413.63;;;11.82;84.14
72285;BME280;60220;53.552;10.092;2023-04-01T04:41:22;99422.31;;;11.84;84.08
72285;BME280;60220;53.552;10.092;2023-04-01T04:43:51;99423.00;;;11.65;84.76
72285;BME280;60220;53.552;10.092;2023-04-01T04:46:18;99423.47;;;11.30;84.51
72285;BME280;60220;53.552;10.092;2023-04-01T04:48:46;99429.53;;;11.79;84.42
72285;BME280;60220;53.552;10.092;2023-04-01T04:51:14;99430.75;;;11.69;84.94
72285;BME280;60220;53.552;10.092;2023-04-01T04:53:44;99433.31;;;11.93;84.52
72285;BME280;60220;53.552;10.092;2023-04-01T04:56:11;99432.56;;;11.45;84.96
72285;BME280;60220;53.552;10.092;2023-04-01T04:58:39;99441.75;;;11.80;85.24
72285;BME280;60220;53.552;10.092;2023-04-01T05:01:10;99438.06;;;11.37;85.40
72285;BME280;60220;53.552;10.092;2023-04-01T05:03:39;99443.66;;;11.51;85.70
72285;BME280;60220;53.552;10.092;2023-04-01T05:06:08;99438.63;;;11.22;86.79
72285;BME280;60220;53.552;10.092;2023-04-01T05:08:35;99451.06;;;11.17;86.66
72285;BME280;60220;53.552;10.092;2023-04-01T05:11:03;99448.59;;;11.37;86.49
72285;BME280;60220;53.552;10.092;2023-04-01T05:13:29;99451.00;;;11.43;85.91
72285;BME280;60220;53.552;10.092;2023-04-01T05:15:57;99450.19;;;11.41;86.31
72285;BME280;60220;53.552;10.092;2023-04-01T05:18:24;99454.59;;;11.64;86.10
72285;BME280;60220;53.552;10.092;2023-04-01T05:20:52;99458.66;;;11.49;85.64
72285;BME280;60220;53.552;10.092;2023-04-01T05:23:20;99456.91;;;11.72;85.71
72285;BME280;60220;53.552;10.092;2023-04-01T05:25:47;99459.13;;;11.12;86.30
72285;BME280;60220;53.552;10.092;2023-04-01T05:28:14;99462.06;;;11.51;86.14
72285;BME280;60220;53.552;10.092;2023-04-01T05:30:41;99471.13;;;12.13;85.54
72285;BME280;60220;53.552;10.092;2023-04-01T05:33:12;99470.19;;;11.69;85.12
72285;BME280;60220;53.552;10.092;2023-04-01T05:35:39;99477.78;;;10.27;86.91
72285;BME280;60220;53.552;10.092;2023-04-01T05:38:07;99483.16;;;10.23;87.73
72285;BME280;60220;53.552;10.092;2023-04-01T05:40:36;99487.81;;;9.85;88.65
72285;BME280;60220;53.552;10.092;2023-04-01T05:43:02;99493.78;;;9.90;89.03
72285;BME280;60220;53.552;10.092;2023-04-01T05:45:29;99502.19;;;9.41;89.97
72285;BME280;60220;53.552;10.092;2023-04-01T05:47:56;99505.84;;;8.71;91.01
72285;BME280;60220;53.552;10.092;2023-04-01T05:50:24;99507.34;;;9.12;91.54
72285;BME280;60220;53.552;10.092;2023-04-01T05:52:50;99512.63;;;9.43;90.15
72285;BME280;60220;53.552;10.092;2023-04-01T05:55:19;99514.63;;;9.93;88.99
72285;BME280;60220;53.552;10.092;2023-04-01T05:57:46;99512.19;;;9.58;88.66
72285;BME280;60220;53.552;10.092;2023-04-01T06:00:15;99515.34;;;9.40;89.42
72285;BME280;60220;53.552;10.092;2023-04-01T06:02:42;99529.22;;;8.77;89.40
72285;BME280;60220;53.552;10.092;2023-04-01T06:05:15;99543.88;;;8.84;91.55
72285;BME280;60220;53.552;10.092;2023-04-01T06:07:44;99538.22;;;8.27;91.94
72285;BME280;60220;53.552;10.092;2023-04-01T06:10:17;99536.59;;;8.23;91.79
72285;BME280;60220;53.552;10.092;2023-04-01T06:12:57;99544.25;;;8.69;92.10
72285;BME280;60220;53.552;10.092;2023-04-01T06:15:33;99544.19;;;8.37;92.02
72285;BME280;60220;53.552;10.092;2023-04-01T06:18:39;99554.75;;;8.31;91.98
72285;BME280;60220;53.552;10.092;2023-04-01T06:21:22;99552.72;;;8.43;92.55
72285;BME280;60220;53.552;10.092;2023-04-01T06:24:05;99553.94;;;7.87;92.25
72285;BME280;60220;53.552;10.092;2023-04-01T06:26:43;99558.94;;;7.98;92.31
72285;BME280;60220;53.552;10.092;2023-04-01T06:29:44;99566.81;;;7.96;92.21
72285;BME280;60220;53.552;10.092;2023-04-01T06:32:42;99571.72;;;7.70;91.86
72285;BME280;60220;53.552;10.092;2023-04-01T06:35:43;99570.03;;;8.07;92.97
72285;BME280;60220;53.552;10.092;2023-04-01T06:38:24;99571.22;;;7.94;91.30
72285;BME280;60220;53.552;10.092;2023-04-01T06:41:08;99573.94;;;7.45;92.25
72285;BME280;60220;53.552;10.092;2023-04-01T06:43:48;99582.63;;;7.90;91.95
72285;BME280;60220;53.552;10.092;2023-04-01T06:46:23;99585.34;;;8.26;91.89
72285;BME280;60220;53.552;10.092;2023-04-01T06:49:12;99582.31;;;8.05;90.72
72285;BME280;60220;53.552;10.092;2023-04-01T06:51:47;99591.88;;;7.63;90.86
72285;BME280;60220;53.552;10.092;2023-04-01T06:54:20;99601.19;;;8.18;92.53
72285;BME280;60220;53.552;10.092;2023-04-01T06:56:52;99601.06;;;7.83;91.42
72285;BME280;60220;53.552;10.092;2023-04-01T06:59:25;99605.03;;;7.57;91.23
72285;BME280;60220;53.552;10.092;2023-04-01T07:01:56;99608.13;;;8.20;90.95
72285;BME280;60220;53.552;10.092;2023-04-01T07:04:27;99613.25;;;7.38;91.20
72285;BME280;60220;53.552;10.092;2023-04-01T07:06:58;99612.22;;;7.46;91.90
72285;BME280;60220;53.552;10.092;2023-04-01T07:09:34;99618.25;;;7.50;91.21
72285;BME280;60220;53.552;10.092;2023-04-01T07:12:14;99627.34;;;7.27;92.58
72285;BME280;60220;53.552;10.092;2023-04-01T07:14:42;99628.47;;;7.62;92.19
72285;BME280;60220;53.552;10.092;2023-04-01T07:17:14;99637.41;;;7.49;90.25
72285;BME280;60220;53.552;10.092;2023-04-01T07:19:45;99641.44;;;7.17;90.87
72285;BME280;60220;53.552;10.092;2023-04-01T07:22:28;99646.97;;;7.50;91.57
72285;BME280;60220;53.552;10.092;2023-04-01T07:24:57;99651.34;;;7.49;91.36
72285;BME280;60220;53.552;10.092;2023-04-01T07:27:31;99645.75;;;7.69;90.84
72285;BME280;60220;53.552;10.092;2023-04-01T07:29:58;99656.63;;;7.45;90.58
72285;BME280;60220;53.552;10.092;2023-04-01T07:32:35;99660.16;;;6.91;91.30
72285;BME280;60220;53.552;10.092;2023-04-01T07:35:17;99661.47;;;7.17;91.37
72285;BME280;60220;53.552;10.092;2023-04-01T07:37:58;99664.34;;;7.00;91.63
72285;BME280;60220;53.552;10.092;2023-04-01T07:40:33;99666.50;;;7.27;91.13
72285;BME280;60220;53.552;10.092;2023-04-01T07:43:25;99682.22;;;7.24;91.00
72285;BME280;60220;53.552;10.092;2023-04-01T07:46:03;99680.91;;;7.50;91.04
72285;BME280;60220;53.552;10.092;2023-04-01T07:48:42;99683.41;;;7.05;91.33
72285;BME280;60220;53.552;10.092;2023-04-01T07:51:17;99686.88;;;7.07;91.29
72285;BME280;60220;53.552;10.092;2023-04-01T07:53:51;99697.03;;;7.22;90.75
72285;BME280;60220;53.552;10.092;2023-04-01T07:56:28;99697.56;;;6.87;91.01
72285;BME280;60220;53.552;10.092;2023-04-01T07:59:05;99696.97;;;6.72;91.15
72285;BME280;60220;53.552;10.092;2023-04-01T08:01:42;99701.91;;;6.88;91.36
72285;BME280;60220;53.552;10.092;2023-04-01T08:04:23;99714.63;;;7.11;91.26
72285;BME280;60220;53.552;10.092;2023-04-01T08:06:59;99716.16;;;6.65;91.95
72285;BME280;60220;53.552;10.092;2023-04-01T08:09:40;99715.25;;;7.27;92.02
72285;BME280;60220;53.552;10.092;2023-04-01T08:12:19;99725.03;;;7.13;91.34
72285;BME280;60220;53.552;10.092;2023-04-01T08:15:00;99724.22;;;7.09;91.35
72285;BME280;60220;53.552;10.092;2023-04-01T08:17:32;99730.22;;;7.14;91.02
72285;BME280;60220;53.552;10.092;2023-04-01T08:20:14;99728.69;;;7.01;91.15
72285;BME280;60220;53.552;10.092;2023-04-01T08:22:45;99734.88;;;6.94;90.93
72285;BME280;60220;53.552;10.092;2023-04-01T08:25:19;99746.03;;;7.05;91.36
72285;BME280;60220;53.552;10.092;2023-04-01T08:27:49;99755.28;;;7.26;90.65
72285;BME280;60220;53.552;10.092;2023-04-01T08:30:21;99755.44;;;7.17;90.56
72285;BME280;60220;53.552;10.092;2023-04-01T08:32:56;99757.31;;;7.06;90.40
72285;BME280;60220;53.552;10.092;2023-04-01T08:35:28;99757.31;;;7.07;89.82
72285;BME280;60220;53.552;10.092;2023-04-01T08:38:04;99757.63;;;6.86;90.42
72285;BME280;60220;53.552;10.092;2023-04-01T08:41:00;99768.13;;;6.80;91.02
72285;BME280;60220;53.552;10.092;2023-04-01T08:43:40;99771.41;;;6.92;89.83
72285;BME280;60220;53.552;10.092;2023-04-01T08:49:12;99771.25;;;7.06;90.11
72285;BME280;60220;53.552;10.092;2023-04-01T08:52:18;99792.31;;;7.51;89.71
72285;BME280;60220;53.552;10.092;2023-04-01T08:55:16;99784.00;;;7.24;88.16
72285;BME280;60220;53.552;10.092;2023-04-01T08:58:00;99782.13;;;7.32;88.96
72285;BME280;60220;53.552;10.092;2023-04-01T09:00:32;99785.75;;;7.22;88.70
72285;BME280;60220;53.552;10.092;2023-04-01T09:03:19;99801.53;;;6.51;89.12
72285;BME280;60220;53.552;10.092;2023-04-01T09:06:19;99799.22;;;6.97;90.24
72285;BME280;60220;53.552;10.092;2023-04-01T09:09:11;99806.16;;;7.56;88.75
72285;BME280;60220;53.552;10.092;2023-04-01T09:11:59;99805.31;;;6.94;88.38
72285;BME280;60220;53.552;10.092;2023-04-01T09:14:47;99804.28;;;7.07;88.71
72285;BME280;60220;53.552;10.092;2023-04-01T09:17:34;99798.81;;;7.24;88.43
72285;BME280;60220;53.552;10.092;2023-04-01T09:20:17;99806.41;;;7.38;87.00
72285;BME280;60220;53.552;10.092;2023-04-01T09:23:03;99808.72;;;6.99;87.45
72285;BME280;60220;53.552;10.092;2023-04-01T09:25:57;99818.16;;;7.08;88.65
72285;BME280;60220;53.552;10.092;2023-04-01T09:28:28;99827.63;;;7.16;87.47
72285;BME280;60220;53.552;10.092;2023-04-01T09:31:25;99834.41;;;7.29;87.11
72285;BME280;60220;53.552;10.092;2023-04-01T09:34:19;99834.25;;;7.39;87.29
72285;BME280;60220;53.552;10.092;2023-04-01T09:37:08;99838.69;;;7.90;85.71
72285;BME280;60220;53.552;10.092;2023-04-01T09:39:54;99843.81;;;6.74;85.92
72285;BME280;60220;53.552;10.092;2023-04-01T09:42:53;99850.00;;;7.32;86.74
72285;BME280;60220;53.552;10.092;2023-04-01T09:45:43;99846.94;;;7.03;87.30
72285;BME280;60220;53.552;10.092;2023-04-01T09:48:28;99855.34;;;7.23;87.35
72285;BME280;60220;53.552;10.092;2023-04-01T09:51:08;99855.44;;;7.17;87.45
72285;BME280;60220;53.552;10.092;2023-04-01T09:53:51;99858.34;;;7.59;86.33
72285;BME280;60220;53.552;10.092;2023-04-01T10:03:05;99876.53;;;7.02;86.63
72285;BME280;60220;53.552;10.092;2023-04-01T10:06:16;99871.34;;;6.99;87.20
72285;BME280;60220;53.552;10.092;2023-04-01T10:15:44;99898.88;;;7.23;87.35
72285;BME280;60220;53.552;10.092;2023-04-01T10:18:42;99892.91;;;7.15;86.63
72285;BME280;60220;53.552;10.092;2023-04-01T10:21:29;99886.31;;;7.51;86.49
72285;BME280;60220;53.552;10.092;2023-04-01T10:24:18;99893.00;;;7.70;86.59
72285;BME280;60220;53.552;10.092;2023-04-01T10:27:16;99897.97;;;7.87;84.97
72285;BME280;60220;53.552;10.092;2023-04-01T10:30:06;99902.50;;;7.74;84.64
72285;BME280;60220;53.552;10.092;2023-04-01T10:39:38;99916.97;;;7.37;86.57
72285;BME280;60220;53.552;10.092;2023-04-01T10:48:24;99921.41;;;7.91;83.73
72285;BME280;60220;53.552;10.092;2023-04-01T10:51:11;99927.31;;;7.43;85.57
72285;BME280;60220;53.552;10.092;2023-04-01T10:54:02;99924.03;;;7.91;85.38
72285;BME280;60220;53.552;10.092;2023-04-01T10:56:46;99932.97;;;7.75;84.57
72285;BME280;60220;53.552;10.092;2023-04-01T10:59:45;99934.72;;;7.73;84.79
72285;BME280;60220;53.552;10.092;2023-04-01T11:02:54;99941.66;;;7.77;84.28
72285;BME280;60220;53.552;10.092;2023-04-01T11:14:52;99959.75;;;7.23;83.65
72285;BME280;60220;53.552;10.092;2023-04-01T11:17:38;99960.50;;;7.97;83.42
72285;BME280;60220;53.552;10.092;2023-04-01T11:20:25;99970.91;;;7.38;84.53
72285;BME280;60220;53.552;10.092;2023-04-01T11:23:22;99973.66;;;7.91;83.66
72285;BME280;60220;53.552;10.092;2023-04-01T11:26:04;99987.31;;;7.49;84.20
72285;BME280;60220;53.552;10.092;2023-04-01T11:28:54;99975.66;;;7.05;83.67
72285;BME280;60220;53.552;10.092;2023-04-01T11:31:41;99988.69;;;7.04;85.06
72285;BME280;60220;53.552;10.092;2023-04-01T11:34:35;99990.84;;;7.45;84.37
72285;BME280;60220;53.552;10.092;2023-04-01T11:37:18;99990.84;;;7.45;84.05
72285;BME280;60220;53.552;10.092;2023-04-01T11:39:59;99993.91;;;7.07;83.79
72285;BME280;60220;53.552;10.092;2023-04-01T11:42:35;99996.13;;;7.39;83.60
72285;BME280;60220;53.552;10.092;2023-04-01T11:45:16;100000.81;;;7.12;83.47
72285;BME280;60220;53.552;10.092;2023-04-01T11:48:08;100003.88;;;6.64;84.69
72285;BME280;60220;53.552;10.092;2023-04-01T11:50:57;100014.22;;;6.74;85.45
72285;BME280;60220;53.552;10.092;2023-04-01T11:53:35;100013.31;;;6.78;84.91
72285;BME280;60220;53.552;10.092;2023-04-01T11:56:14;100029.63;;;7.00;84.63
72285;BME280;60220;53.552;10.092;2023-04-01T11:59:00;100028.81;;;6.97;84.89
72285;BME280;60220;53.552;10.092;2023-04-01T12:01:44;100031.41;;;6.93;84.34
72285;BME280;60220;53.552;10.092;2023-04-01T12:04:46;100030.69;;;6.81;83.79
72285;BME280;60220;53.552;10.092;2023-04-01T12:07:27;100036.63;;;6.95;84.31
72285;BME280;60220;53.552;10.092;2023-04-01T12:10:05;100042.88;;;7.60;83.01
72285;BME280;60220;53.552;10.092;2023-04-01T12:12:42;100048.72;;;7.05;82.28
72285;BME280;60220;53.552;10.092;2023-04-01T12:15:16;100043.59;;;6.96;83.23
72285;BME280;60220;53.552;10.092;2023-04-01T12:17:48;100052.19;;;7.04;82.81
72285;BME280;60220;53.552;10.092;2023-04-01T12:20:36;100059.81;;;7.22;82.87
72285;BME280;60220;53.552;10.092;2023-04-01T12:23:20;100065.97;;;7.18;82.75
72285;BME280;60220;53.552;10.092;2023-04-01T12:26:24;100068.63;;;7.17;82.60
72285;BME280;60220;53.552;10.092;2023-04-01T12:29:16;100071.41;;;6.94;83.28
72285;BME280;60220;53.552;10.092;2023-04-01T12:31:53;100083.56;;;7.01;83.46
72285;BME280;60220;53.552;10.092;2023-04-01T12:34:42;100088.19;;;6.63;83.22
72285;BME280;60220;53.552;10.092;2023-04-01T12:37:20;100079.47;;;6.70;83.65
72285;BME280;60220;53.552;10.092;2023-04-01T12:45:31;100099.47;;;7.59;80.68
72285;BME280;60220;53.552;10.092;2023-04-01T12:48:31;100100.78;;;7.17;82.59
72285;BME280;60220;53.552;10.092;2023-04-01T12:57:45;100121.97;;;6.81;83.67
72285;BME280;60220;53.552;10.092;2023-04-01T13:00:30;100120.28;;;6.75;83.80
72285;BME280;60220;53.552;10.092;2023-04-01T13:03:10;100131.66;;;6.65;83.64
72285;BME280;60220;53.552;10.092;2023-04-01T13:06:15;100142.09;;;6.65;83.40
72285;BME280;60220;53.552;10.092;2023-04-01T13:08:53;100131.09;;;6.16;84.29
72285;BME280;60220;53.552;10.092;2023-04-01T13:11:31;100137.13;;;6.20;84.77
72285;BME280;60220;53.552;10.092;2023-04-01T13:14:19;100149.38;;;5.98;84.34
72285;BME280;60220;53.552;10.092;2023-04-01T13:19:41;100158.66;;;6.57;82.28
72285;BME280;60220;53.552;10.092;2023-04-01T13:22:18;100159.69;;;6.24;83.00
72285;BME280;60220;53.552;10.092;2023-04-01T13:24:52;100158.91;;;6.08;83.41
72285;BME280;60220;53.552;10.092;2023-04-01T13:27:25;100168.53;;;5.92;84.92
72285;BME280;60220;53.552;10.092;2023-04-01T13:30:07;100174.38;;;6.44;83.96
72285;BME280;60220;53.552;10.092;2023-04-01T13:32:44;100168.34;;;6.35;82.80
72285;BME280;60220;53.552;10.092;2023-04-01T13:35:22;100184.13;;;6.08;83.72
72285;BME280;60220;53.552;10.092;2023-04-01T13:38:12;100196.09;;;6.46;83.69
72285;BME280;60220;53.552;10.092;2023-04-01T13:40:50;100184.88;;;6.29;82.95
72285;BME280;60220;53.552;10.092;2023-04-01T13:43:23;100191.03;;;6.10;83.14
72285;BME280;60220;53.552;10.092;2023-04-01T13:46:08;100204.03;;;6.21;82.80
72285;BME280;60220;53.552;10.092;2023-04-01T13:48:57;100206.59;;;6.28;82.16
72285;BME280;60220;53.552;10.092;2023-04-01T13:51:52;100211.00;;;6.08;82.54
72285;BME280;60220;53.552;10.092;2023-04-01T13:54:39;100214.22;;;6.71;81.19
72285;BME280;60220;53.552;10.092;2023-04-01T13:57:23;100217.53;;;6.92;79.94
72285;BME280;60220;53.552;10.092;2023-04-01T14:00:11;100222.06;;;6.63;79.69
72285;BME280;60220;53.552;10.092;2023-04-01T14:02:51;100220.50;;;6.29;80.65
72285;BME280;60220;53.552;10.092;2023-04-01T14:05:39;100226.50;;;6.51;81.18
72285;BME280;60220;53.552;10.092;2023-04-01T14:08:20;100229.19;;;6.28;80.49
72285;BME280;60220;53.552;10.092;2023-04-01T14:10:59;100239.59;;;6.29;81.15
72285;BME280;60220;53.552;10.092;2023-04-01T14:13:34;100237.91;;;6.22;81.11
72285;BME280;60220;53.552;10.092;2023-04-01T14:19:21;100260.16;;;6.95;80.28
72285;BME280;60220;53.552;10.092;2023-04-01T14:21:59;100260.47;;;6.26;81.29
72285;BME280;60220;53.552;10.092;2023-04-01T14:24:51;100253.59;;;6.07;82.47
72285;BME280;60220;53.552;10.092;2023-04-01T14:27:48;100267.47;;;6.15;82.25
72285;BME280;60220;53.552;10.092;2023-04-01T14:30:38;100274.34;;;6.37;81.66
72285;BME280;60220;53.552;10.092;2023-04-01T14:33:20;100269.22;;;6.10;82.32
72285;BME280;60220;53.552;10.092;2023-04-01T14:36:04;100277.81;;;6.36;82.35
72285;BME280;60220;53.552;10.092;2023-04-01T14:38:42;100271.78;;;6.22;81.09